Time;durP1;ratioP1;P1;durP2;ratioP2;P2;SDS_P1;SDS_P2;PMS_P1;PMS_P2;Temp;Humidity;BMP_temperature;BMP_pressure;BME280_temperature;BME280_humidity;BME280_pressure;Samples;Min_cycle;Max_cycle;Signal;HPM_P1;HPM_P2
2023/04/18 00:01:00;;;;;;;14.55;7.65;;;12.40;76.70;;;;;;5116090;28;20027;-75
2023/04/18 00:03:28;;;;;;;13.73;7.28;;;12.30;76.20;;;;;;5115051;28;20106;-75
2023/04/18 00:05:54;;;;;;;13.13;7.57;;;12.20;75.40;;;;;;5116063;28;20016;-75
2023/04/18 00:08:20;;;;;;;13.73;7.75;;;12.20;75.10;;;;;;5115981;28;20111;-75
2023/04/18 00:10:45;;;;;;;13.82;7.45;;;12.20;74.20;;;;;;5115935;28;20027;-75
2023/04/18 00:13:11;;;;;;;16.15;8.30;;;12.20;74.10;;;;;;5115915;28;20075;-75
2023/04/18 00:15:37;;;;;;;17.45;8.27;;;12.10;73.60;;;;;;5115836;28;20047;-75
2023/04/18 00:18:02;;;;;;;14.23;7.65;;;12.10;73.60;;;;;;5115797;28;20033;-75
2023/04/18 00:20:28;;;;;;;15.00;7.68;;;12.00;73.20;;;;;;5115731;28;20034;-75
2023/04/18 00:22:54;;;;;;;15.77;7.78;;;12.00;73.30;;;;;;5115669;28;20031;-75
2023/04/18 00:25:20;;;;;;;13.20;7.40;;;12.00;73.90;;;;;;5114784;28;20020;-75
2023/04/18 00:27:46;;;;;;;14.35;7.68;;;12.00;73.00;;;;;;5115584;28;20035;-75
2023/04/18 00:30:12;;;;;;;15.43;7.82;;;11.90;72.80;;;;;;5115552;28;20031;-75
2023/04/18 00:32:38;;;;;;;13.88;7.05;;;11.90;72.40;;;;;;5115566;28;20016;-75
2023/04/18 00:35:04;;;;;;;12.20;7.43;;;11.90;72.50;;;;;;5114452;28;20168;-75
2023/04/18 00:37:30;;;;;;;11.13;7.38;;;11.80;72.30;;;;;;5115420;28;20028;-75
2023/04/18 00:39:56;;;;;;;13.73;7.30;;;11.80;72.20;;;;;;5115316;28;20027;-75
2023/04/18 00:42:24;;;;;;;14.45;7.47;;;11.70;72.00;;;;;;5115364;28;20070;-76
2023/04/18 00:44:49;;;;;;;11.35;6.95;;;11.80;72.30;;;;;;5114297;28;20103;-76
2023/04/18 00:47:18;;;;;;;11.60;7.05;;;11.80;72.30;;;;;;5115147;28;20027;-75
2023/04/18 00:49:44;;;;;;;13.15;7.28;;;11.80;72.10;;;;;;5114132;28;20070;-75
2023/04/18 00:52:11;;;;;;;14.48;7.13;;;11.80;71.80;;;;;;5113855;28;20048;-75
2023/04/18 00:54:39;;;;;;;12.15;6.90;;;11.70;71.20;;;;;;5115098;28;20044;-75
2023/04/18 00:57:05;;;;;;;14.70;7.57;;;11.60;71.50;;;;;;5114760;28;20039;-75
2023/04/18 00:59:35;;;;;;;14.60;6.97;;;11.60;71.10;;;;;;5114902;28;20084;-75
2023/04/18 01:02:02;;;;;;;12.55;7.43;;;11.50;71.00;;;;;;5114974;28;20039;-75
2023/04/18 01:04:28;;;;;;;10.68;6.80;;;11.40;71.20;;;;;;5113664;28;20024;-75
2023/04/18 01:06:54;;;;;;;13.02;6.93;;;11.40;71.40;;;;;;5114762;28;20028;-75
2023/04/18 01:09:21;;;;;;;12.43;7.35;;;11.40;71.80;;;;;;5113662;28;20016;-75
2023/04/18 01:11:46;;;;;;;11.90;6.80;;;11.40;71.50;;;;;;5114729;28;20026;-75
2023/04/18 01:14:12;;;;;;;12.02;7.30;;;11.40;71.10;;;;;;5114674;28;20374;-75
2023/04/18 01:16:38;;;;;;;12.00;7.13;;;11.40;71.30;;;;;;5114628;28;20043;-75
2023/04/18 01:19:04;;;;;;;13.15;7.38;;;11.30;71.20;;;;;;5114632;28;20060;-76
2023/04/18 01:21:35;;;;;;;9.90;6.72;;;11.30;71.20;;;;;;5114570;28;20054;-76
2023/04/18 01:24:15;;;;;;;13.63;7.68;;;11.30;71.30;;;;;;5114494;28;20024;-76
2023/04/18 01:26:42;;;;;;;12.40;6.75;;;11.20;71.50;;;;;;5114545;28;20024;-76
2023/04/18 01:29:09;;;;;;;12.38;6.97;;;11.20;71.80;;;;;;5114400;28;20073;-76
2023/04/18 01:31:39;;;;;;;13.95;7.65;;;11.20;71.50;;;;;;5114381;28;20020;-76
2023/04/18 01:34:05;;;;;;;15.00;7.68;;;11.20;71.50;;;;;;5114345;28;20028;-76
2023/04/18 01:36:31;;;;;;;12.32;7.00;;;11.10;71.60;;;;;;5114427;28;20088;-76
2023/04/18 01:38:58;;;;;;;13.02;7.55;;;11.00;71.60;;;;;;5114223;28;20031;-76
2023/04/18 01:41:24;;;;;;;12.30;7.28;;;11.00;71.80;;;;;;5114175;28;20043;-76
2023/04/18 01:43:49;;;;;;;14.52;8.05;;;11.00;72.10;;;;;;5113023;28;20036;-75
2023/04/18 01:46:15;;;;;;;12.82;7.32;;;11.00;72.50;;;;;;5114077;28;20111;-75
2023/04/18 01:48:41;;;;;;;13.63;7.57;;;10.80;71.90;;;;;;5114089;28;20023;-75
2023/04/18 01:51:07;;;;;;;12.80;6.82;;;10.80;72.00;;;;;;5112835;28;20060;-75
2023/04/18 01:53:33;;;;;;;14.10;8.05;;;10.80;72.30;;;;;;5114072;28;20031;-75
2023/04/18 01:55:59;;;;;;;13.75;7.97;;;10.80;72.30;;;;;;5113977;28;20020;-75
2023/04/18 01:58:25;;;;;;;13.55;8.25;;;10.80;71.60;;;;;;5113890;28;20058;-75
2023/04/18 02:00:51;;;;;;;13.23;7.35;;;10.70;72.00;;;;;;5095778;28;20021;-75
2023/04/18 02:03:17;;;;;;;15.15;7.95;;;10.50;72.20;;;;;;5113955;28;20039;-75
2023/04/18 02:05:43;;;;;;;15.07;7.78;;;10.60;72.50;;;;;;5113728;28;20047;-75
2023/04/18 02:08:10;;;;;;;14.55;7.45;;;10.50;72.50;;;;;;5113805;28;20046;-75
2023/04/18 02:10:36;;;;;;;12.68;7.65;;;10.50;72.60;;;;;;5113739;28;20020;-75
2023/04/18 02:13:02;;;;;;;16.40;7.93;;;10.30;72.90;;;;;;5113717;28;20080;-75
2023/04/18 02:15:27;;;;;;;15.95;7.63;;;10.40;72.90;;;;;;5113778;28;20036;-75
2023/04/18 02:17:53;;;;;;;14.50;7.93;;;10.30;72.90;;;;;;5112590;28;20028;-75
2023/04/18 02:20:18;;;;;;;15.18;8.30;;;10.30;73.10;;;;;;5112565;28;20028;-75
2023/04/18 02:22:45;;;;;;;15.48;8.20;;;10.30;73.10;;;;;;5113584;28;20042;-75
2023/04/18 02:25:10;;;;;;;14.20;8.50;;;10.40;73.10;;;;;;5112672;28;20032;-75
2023/04/18 02:27:36;;;;;;;15.55;7.95;;;10.30;73.10;;;;;;5113534;28;20045;-75
2023/04/18 02:30:02;;;;;;;14.65;7.20;;;10.30;73.10;;;;;;5113492;28;20012;-75
2023/04/18 02:32:27;;;;;;;13.90;7.75;;;10.30;73.30;;;;;;5113510;28;20471;-76
2023/04/18 02:34:53;;;;;;;14.95;8.05;;;10.20;73.20;;;;;;5113432;28;20059;-76
2023/04/18 02:37:19;;;;;;;14.88;7.82;;;10.20;73.50;;;;;;5113515;28;20056;-75
2023/04/18 02:39:44;;;;;;;15.85;8.30;;;10.10;73.60;;;;;;5112384;28;20043;-75
2023/04/18 02:42:10;;;;;;;12.73;7.72;;;10.10;73.70;;;;;;5112658;28;20028;-75
2023/04/18 02:44:35;;;;;;;12.52;7.43;;;10.00;73.70;;;;;;5112341;28;20085;-75
2023/04/18 02:47:01;;;;;;;14.18;7.63;;;10.00;74.00;;;;;;5113357;28;20024;-75
2023/04/18 02:49:27;;;;;;;15.52;7.40;;;10.00;73.80;;;;;;5113450;28;20046;-75
2023/04/18 02:51:56;;;;;;;15.73;8.23;;;10.00;73.90;;;;;;5113101;28;20056;-75
2023/04/18 02:54:23;;;;;;;13.48;7.53;;;10.00;74.00;;;;;;5112257;28;20057;-76
2023/04/18 02:56:50;;;;;;;12.70;7.57;;;9.90;74.00;;;;;;5113375;28;20028;-76
2023/04/18 02:59:15;;;;;;;15.13;8.05;;;9.90;74.00;;;;;;5113227;28;20028;-75
2023/04/18 03:01:41;;;;;;;13.65;7.18;;;9.80;74.10;;;;;;5113206;28;20043;-75
2023/04/18 03:04:07;;;;;;;13.90;7.70;;;9.90;74.30;;;;;;5113094;28;20033;-75
2023/04/18 03:06:32;;;;;;;12.77;8.00;;;9.80;74.40;;;;;;5112164;28;20024;-75
2023/04/18 03:08:58;;;;;;;14.43;7.72;;;9.70;74.20;;;;;;5113136;28;20039;-75
2023/04/18 03:11:23;;;;;;;19.25;8.32;;;9.70;74.50;;;;;;5113972;28;20024;-75
2023/04/18 03:13:49;;;;;;;13.90;7.72;;;9.60;74.50;;;;;;5117047;28;20028;-75
2023/04/18 03:16:15;;;;;;;12.93;7.10;;;9.60;74.90;;;;;;5116080;28;20020;-75
2023/04/18 03:18:41;;;;;;;13.40;7.90;;;9.60;75.00;;;;;;5116999;28;20046;-75
2023/04/18 03:21:06;;;;;;;12.88;7.35;;;9.60;74.90;;;;;;5098816;28;20092;-75
2023/04/18 03:23:32;;;;;;;12.18;7.32;;;9.60;74.90;;;;;;5116827;28;20024;-75
2023/04/18 03:25:57;;;;;;;12.63;7.32;;;9.60;74.90;;;;;;5116601;28;20047;-75
2023/04/18 03:28:23;;;;;;;13.30;7.35;;;9.60;74.90;;;;;;5116798;28;20050;-75
2023/04/18 03:30:49;;;;;;;12.98;7.60;;;9.60;75.00;;;;;;5115785;28;20032;-75
2023/04/18 03:33:16;;;;;;;15.10;7.78;;;9.60;75.00;;;;;;5116614;28;20028;-75
2023/04/18 03:35:41;;;;;;;14.13;7.72;;;9.50;74.80;;;;;;5116666;28;20052;-75
2023/04/18 03:38:07;;;;;;;13.55;7.68;;;9.50;75.00;;;;;;5116599;28;20047;-75
2023/04/18 03:40:33;;;;;;;12.93;8.00;;;9.40;75.10;;;;;;5116522;28;20084;-75
2023/04/18 03:42:58;;;;;;;11.88;7.22;;;9.40;75.40;;;;;;5116466;28;20028;-75
2023/04/18 03:45:24;;;;;;;14.75;7.18;;;9.30;75.50;;;;;;5115362;28;20028;-75
2023/04/18 03:47:50;;;;;;;12.38;6.95;;;9.30;75.40;;;;;;5116434;28;20027;-75
2023/04/18 03:50:16;;;;;;;14.13;7.53;;;9.30;75.50;;;;;;5115549;28;20028;-75
2023/04/18 03:52:41;;;;;;;12.38;7.53;;;9.30;75.60;;;;;;5116044;28;20070;-75
2023/04/18 03:55:07;;;;;;;14.98;8.15;;;9.20;75.60;;;;;;5116270;28;20036;-75
2023/04/18 03:57:33;;;;;;;14.00;7.93;;;9.20;75.70;;;;;;5098395;28;20050;-75
2023/04/18 03:59:58;;;;;;;14.05;7.70;;;9.20;75.60;;;;;;5098271;28;20032;-75
2023/04/18 04:02:24;;;;;;;13.13;7.18;;;9.20;75.80;;;;;;5116112;28;20044;-75
2023/04/18 04:04:50;;;;;;;13.77;7.50;;;9.10;76.10;;;;;;5116050;28;20036;-76
2023/04/18 04:07:16;;;;;;;12.88;7.13;;;9.10;76.10;;;;;;5115150;28;20126;-76
2023/04/18 04:09:41;;;;;;;13.90;7.88;;;9.10;76.30;;;;;;5116130;28;20051;-76
2023/04/18 04:12:07;;;;;;;14.23;7.65;;;9.10;76.00;;;;;;5115937;28;20016;-75
2023/04/18 04:14:32;;;;;;;10.95;7.25;;;9.10;75.90;;;;;;5115862;28;20032;-75
2023/04/18 04:16:58;;;;;;;14.07;7.18;;;9.00;76.10;;;;;;5115868;28;20024;-75
2023/04/18 04:19:24;;;;;;;12.95;6.82;;;9.00;76.20;;;;;;5115787;28;20024;-75
2023/04/18 04:21:49;;;;;;;12.25;6.95;;;9.00;76.20;;;;;;5115329;28;20028;-75
2023/04/18 04:24:15;;;;;;;14.27;7.50;;;9.00;76.30;;;;;;5114717;28;20036;-75
2023/04/18 04:26:41;;;;;;;12.15;6.95;;;9.00;76.40;;;;;;5114631;28;20032;-75
2023/04/18 04:29:08;;;;;;;15.98;7.85;;;8.90;76.20;;;;;;5114582;28;20032;-75
2023/04/18 04:31:34;;;;;;;15.05;7.05;;;8.90;76.20;;;;;;5114662;28;20038;-75
2023/04/18 04:34:00;;;;;;;12.75;6.97;;;8.90;76.20;;;;;;5115504;28;20032;-75
2023/04/18 04:36:26;;;;;;;13.32;7.22;;;8.90;76.40;;;;;;5115456;28;20084;-75
2023/04/18 04:38:52;;;;;;;11.32;7.07;;;8.90;76.40;;;;;;5115469;28;20025;-75
2023/04/18 04:41:17;;;;;;;12.63;7.05;;;8.90;76.40;;;;;;5115336;28;20507;-75
2023/04/18 04:43:45;;;;;;;13.02;6.97;;;8.80;76.50;;;;;;5114244;28;20039;-75
2023/04/18 04:46:13;;;;;;;13.93;7.35;;;8.80;76.40;;;;;;5115267;28;20036;-75
2023/04/18 04:48:39;;;;;;;14.57;7.07;;;8.80;76.60;;;;;;5115218;28;20026;-75
2023/04/18 04:51:05;;;;;;;12.68;7.05;;;8.90;76.30;;;;;;5115004;28;20039;-75
2023/04/18 04:53:30;;;;;;;16.45;7.90;;;8.90;76.60;;;;;;5115175;28;20031;-75
2023/04/18 04:55:57;;;;;;;14.93;7.28;;;8.90;76.50;;;;;;5114116;28;20040;-75
2023/04/18 04:58:22;;;;;;;12.02;7.10;;;8.80;76.50;;;;;;5115043;28;20049;-75
2023/04/18 05:00:49;;;;;;;12.38;7.05;;;8.80;76.60;;;;;;5114973;28;20023;-75
2023/04/18 05:03:15;;;;;;;14.23;7.55;;;8.80;76.60;;;;;;5114923;28;20083;-75
2023/04/18 05:05:41;;;;;;;13.98;7.50;;;8.80;76.80;;;;;;5114816;28;20043;-75
2023/04/18 05:08:06;;;;;;;13.32;8.02;;;8.80;77.10;;;;;;5114801;28;20031;-75
2023/04/18 05:10:35;;;;;;;12.18;7.43;;;8.80;76.90;;;;;;5114789;28;20084;-75
2023/04/18 05:13:02;;;;;;;14.50;7.80;;;8.80;77.20;;;;;;5114589;28;20058;-76
2023/04/18 05:15:28;;;;;;;12.57;7.20;;;8.80;77.10;;;;;;5114602;28;20047;-76
2023/04/18 05:17:53;;;;;;;13.77;7.18;;;8.70;77.50;;;;;;5114648;28;20031;-76
2023/04/18 05:20:19;;;;;;;13.85;7.53;;;8.70;77.60;;;;;;5114590;28;20020;-76
2023/04/18 05:22:45;;;;;;;15.48;7.13;;;8.70;77.80;;;;;;5113640;28;20042;-76
2023/04/18 05:25:11;;;;;;;14.45;7.25;;;8.80;78.20;;;;;;5114380;28;20038;-76
2023/04/18 05:27:37;;;;;;;13.40;7.10;;;8.70;78.40;;;;;;5114495;28;20016;-76
2023/04/18 05:30:03;;;;;;;12.32;6.65;;;8.70;78.40;;;;;;5113510;28;20036;-76
2023/04/18 05:32:28;;;;;;;12.25;6.90;;;8.80;78.40;;;;;;5113406;28;20085;-76
2023/04/18 05:34:54;;;;;;;16.08;7.72;;;8.90;78.70;;;;;;5113488;28;20040;-76
2023/04/18 05:37:21;;;;;;;13.48;7.30;;;8.90;78.80;;;;;;5114434;28;20032;-76
2023/04/18 05:39:46;;;;;;;13.20;7.35;;;8.90;79.00;;;;;;5114237;28;20476;-76
2023/04/18 05:42:12;;;;;;;14.05;7.45;;;8.90;79.60;;;;;;5114215;28;20024;-76
2023/04/18 05:44:38;;;;;;;13.75;7.10;;;8.90;79.60;;;;;;5113077;28;20028;-76
2023/04/18 05:47:06;;;;;;;14.07;7.75;;;9.00;79.70;;;;;;5113161;28;20488;-76
2023/04/18 05:49:32;;;;;;;14.25;6.65;;;8.90;80.10;;;;;;5113166;28;20024;-76
2023/04/18 05:51:57;;;;;;;11.98;6.90;;;9.00;79.70;;;;;;5113861;28;20040;-76
2023/04/18 05:54:26;;;;;;;13.60;7.38;;;9.00;79.80;;;;;;5113947;28;20039;-76
2023/04/18 05:56:53;;;;;;;11.20;7.13;;;9.10;79.80;;;;;;5113032;28;20051;-76
2023/04/18 05:59:22;;;;;;;15.90;7.57;;;9.10;80.40;;;;;;5113797;28;20028;-76
2023/04/18 06:01:48;;;;;;;14.38;7.13;;;9.00;80.30;;;;;;5112834;28;20034;-76
2023/04/18 06:04:14;;;;;;;13.52;6.97;;;9.00;80.60;;;;;;5113798;28;20028;-76
2023/04/18 06:06:40;;;;;;;14.35;8.13;;;9.00;81.00;;;;;;5112805;28;20484;-76
2023/04/18 06:09:06;;;;;;;15.88;7.05;;;9.10;81.20;;;;;;5112728;28;20024;-76
2023/04/18 06:11:34;;;;;;;12.88;7.47;;;9.10;81.60;;;;;;5113754;28;20046;-76
2023/04/18 06:14:00;;;;;;;14.88;7.18;;;9.10;81.20;;;;;;5112653;28;20028;-76
2023/04/18 06:16:26;;;;;;;13.13;7.00;;;9.20;81.60;;;;;;5113824;28;20028;-76
2023/04/18 06:18:52;;;;;;;12.35;7.30;;;9.10;81.60;;;;;;5113795;28;20039;-75
2023/04/18 06:21:17;;;;;;;14.77;7.97;;;9.10;82.00;;;;;;5113686;28;20024;-75
2023/04/18 06:23:43;;;;;;;13.13;7.47;;;9.10;81.70;;;;;;5113447;28;20464;-75
2023/04/18 06:26:08;;;;;;;13.52;7.20;;;9.20;82.00;;;;;;5113533;28;20020;-75
2023/04/18 06:28:34;;;;;;;13.18;7.20;;;9.20;81.90;;;;;;5113687;28;20572;-75
2023/04/18 06:31:00;;;;;;;13.48;6.93;;;9.30;81.90;;;;;;5113452;28;20027;-75
2023/04/18 06:33:25;;;;;;;13.68;7.20;;;9.30;82.00;;;;;;5112457;28;20048;-75
2023/04/18 06:35:51;;;;;;;14.00;6.78;;;9.30;82.00;;;;;;5113451;28;20047;-75
2023/04/18 06:38:17;;;;;;;13.18;7.13;;;9.30;82.00;;;;;;5113480;28;20035;-75
2023/04/18 06:40:43;;;;;;;12.00;6.88;;;9.40;82.10;;;;;;5113422;28;20047;-75
2023/04/18 06:43:08;;;;;;;10.40;6.55;;;9.40;82.10;;;;;;5112358;28;20148;-75
2023/04/18 06:45:34;;;;;;;13.05;6.78;;;9.40;82.30;;;;;;5114486;28;20031;-75
2023/04/18 06:48:02;;;;;;;9.70;5.68;;;9.40;82.40;;;;;;5117555;28;20016;-75
2023/04/18 06:50:28;;;;;;;16.25;6.45;;;9.40;82.50;;;;;;5117549;28;20158;-77
2023/04/18 06:52:54;;;;;;;11.52;6.55;;;9.40;83.20;;;;;;5116434;28;20048;-76
2023/04/18 06:55:20;;;;;;;12.50;6.25;;;9.40;82.30;;;;;;5116526;28;20046;-76
2023/04/18 06:57:46;;;;;;;10.63;6.32;;;9.40;82.80;;;;;;5116362;28;20397;-76
2023/04/18 07:00:12;;;;;;;12.13;6.63;;;9.50;82.80;;;;;;5117370;28;20606;-76
2023/04/18 07:02:38;;;;;;;11.85;6.78;;;9.50;83.10;;;;;;5117330;28;20050;-76
2023/04/18 07:05:05;;;;;;;11.95;6.80;;;9.60;82.90;;;;;;5116285;28;20048;-76
2023/04/18 07:07:32;;;;;;;10.88;6.43;;;9.60;83.20;;;;;;5117243;28;20052;-76
2023/04/18 07:09:59;;;;;;;13.02;7.10;;;9.60;83.30;;;;;;5117146;28;20029;-76
2023/04/18 07:12:25;;;;;;;12.23;6.25;;;9.70;83.20;;;;;;5117183;28;20040;-76
2023/04/18 07:14:50;;;;;;;11.38;6.00;;;9.70;83.60;;;;;;5116068;28;20036;-76
2023/04/18 07:17:16;;;;;;;10.55;5.55;;;9.80;83.90;;;;;;5115985;28;20023;-76
2023/04/18 07:19:43;;;;;;;9.55;5.78;;;9.80;83.90;;;;;;5116137;28;20016;-76
2023/04/18 07:22:09;;;;;;;11.10;5.38;;;9.90;84.10;;;;;;5116943;28;20073;-76
2023/04/18 07:24:35;;;;;;;10.90;5.53;;;9.90;83.80;;;;;;5116809;28;20032;-76
2023/04/18 07:27:05;;;;;;;10.85;5.13;;;9.90;83.70;;;;;;5116040;28;20103;-76
2023/04/18 07:29:31;;;;;;;10.57;5.88;;;10.00;83.40;;;;;;5116805;28;20535;-76
2023/04/18 07:31:57;;;;;;;10.90;5.55;;;10.10;84.10;;;;;;5116770;28;20020;-76
2023/04/18 07:34:24;;;;;;;11.05;5.80;;;10.10;84.40;;;;;;5116617;28;20028;-76
2023/04/18 07:36:50;;;;;;;11.25;5.45;;;10.10;83.90;;;;;;5116682;28;20031;-76
2023/04/18 07:39:16;;;;;;;10.25;5.57;;;10.10;83.90;;;;;;5116580;28;20056;-76
2023/04/18 07:41:41;;;;;;;10.73;5.72;;;10.10;83.60;;;;;;5115693;28;20051;-76
2023/04/18 07:44:07;;;;;;;11.02;5.50;;;10.20;84.00;;;;;;5116385;28;20028;-76
2023/04/18 07:46:33;;;;;;;9.73;5.07;;;10.20;84.10;;;;;;5116460;28;20055;-76
2023/04/18 07:48:58;;;;;;;9.88;5.47;;;10.20;83.90;;;;;;5116434;28;20025;-75
2023/04/18 07:51:30;;;;;;;11.10;5.57;;;10.20;84.10;;;;;;5116129;28;20515;-76
2023/04/18 07:53:56;;;;;;;10.00;5.90;;;10.20;84.00;;;;;;5116471;28;20107;-76
2023/04/18 07:56:22;;;;;;;8.55;5.22;;;10.20;84.80;;;;;;5116253;28;20385;-76
2023/04/18 07:58:48;;;;;;;9.52;5.57;;;10.30;84.60;;;;;;5115440;28;20066;-76
2023/04/18 08:01:17;;;;;;;10.23;5.53;;;10.50;84.60;;;;;;5116126;28;20051;-76
2023/04/18 08:03:42;;;;;;;10.57;5.78;;;10.50;84.80;;;;;;5115114;28;20041;-76
2023/04/18 08:06:08;;;;;;;10.43;5.70;;;10.60;84.00;;;;;;5116086;28;20523;-76
2023/04/18 08:08:34;;;;;;;8.52;4.78;;;10.60;83.70;;;;;;5116222;28;20055;-76
2023/04/18 08:11:00;;;;;;;11.13;5.82;;;10.60;83.20;;;;;;5115980;28;20020;-76
2023/04/18 08:13:26;;;;;;;9.48;5.53;;;10.70;83.70;;;;;;5115985;28;20039;-76
2023/04/18 08:15:51;;;;;;;10.00;5.55;;;10.80;83.90;;;;;;5115947;28;20024;-76
2023/04/18 08:18:18;;;;;;;9.20;5.40;;;10.90;85.00;;;;;;5114873;28;20105;-76
2023/04/18 08:20:44;;;;;;;10.13;5.28;;;11.10;84.10;;;;;;5115794;28;20024;-76
2023/04/18 08:23:10;;;;;;;10.13;5.88;;;11.10;82.60;;;;;;5115762;28;20042;-76
2023/04/18 08:25:35;;;;;;;10.70;6.20;;;11.20;82.80;;;;;;5115599;28;20078;-76
2023/04/18 08:28:01;;;;;;;10.05;6.05;;;11.20;82.60;;;;;;5115644;28;20050;-76
2023/04/18 08:30:27;;;;;;;9.00;5.07;;;11.30;82.60;;;;;;5115608;28;20028;-76
2023/04/18 08:32:52;;;;;;;10.73;5.38;;;11.50;83.20;;;;;;5114598;28;20028;-76
2023/04/18 08:35:18;;;;;;;9.63;5.60;;;11.70;83.10;;;;;;5115416;28;20032;-76
2023/04/18 08:37:44;;;;;;;12.07;5.88;;;11.90;82.70;;;;;;5115597;28;20028;-76
2023/04/18 08:40:10;;;;;;;10.05;5.60;;;12.00;81.70;;;;;;5115421;28;20035;-76
2023/04/18 08:42:37;;;;;;;9.85;5.22;;;11.90;80.40;;;;;;5115373;28;20404;-76
2023/04/18 08:45:04;;;;;;;10.10;5.55;;;12.00;80.50;;;;;;5114421;28;20024;-76
2023/04/18 08:47:30;;;;;;;9.38;5.20;;;12.00;79.90;;;;;;5115426;28;20023;-76
2023/04/18 08:49:56;;;;;;;10.80;5.53;;;12.00;79.00;;;;;;5115352;28;20481;-76
2023/04/18 08:52:22;;;;;;;8.60;4.97;;;12.00;77.80;;;;;;5114972;28;20104;-76
2023/04/18 08:54:49;;;;;;;9.35;5.90;;;12.00;78.60;;;;;;5114107;28;20050;-76
2023/04/18 08:57:22;;;;;;;8.57;5.13;;;12.20;79.00;;;;;;5115042;28;20095;-76
2023/04/18 08:59:49;;;;;;;10.75;5.95;;;12.30;78.90;;;;;;5115053;28;20020;-76
2023/04/18 09:02:15;;;;;;;9.05;5.05;;;12.40;77.20;;;;;;5115033;28;20034;-76
2023/04/18 09:04:44;;;;;;;9.02;6.00;;;12.20;77.30;;;;;;5114849;28;20028;-76
2023/04/18 09:07:15;;;;;;;6.38;4.13;;;12.10;78.10;;;;;;5114909;28;20016;-76
2023/04/18 09:09:51;;;;;;;8.68;4.68;;;12.00;78.80;;;;;;5113880;28;20024;-76
2023/04/18 09:12:22;;;;;;;7.38;4.72;;;12.00;79.10;;;;;;5114832;28;20024;-76
2023/04/18 09:14:50;;;;;;;8.27;4.72;;;12.10;79.40;;;;;;5114742;28;20039;-76
2023/04/18 09:17:34;;;;;;;7.63;4.22;;;12.20;78.10;;;;;;5114702;28;20083;-76
2023/04/18 09:20:05;;;;;;;10.10;5.50;;;12.20;78.30;;;;;;5114663;28;20028;-76
2023/04/18 09:22:51;;;;;;;7.68;4.68;;;12.40;78.10;;;;;;5114585;28;20032;-76
2023/04/18 09:25:24;;;;;;;8.57;4.53;;;12.50;77.60;;;;;;5114461;28;20032;-76
2023/04/18 09:27:51;;;;;;;6.30;4.43;;;12.60;77.20;;;;;;5113454;28;20017;-76
2023/04/18 09:30:39;;;;;;;8.70;4.65;;;12.60;76.60;;;;;;5114448;28;20035;-76
2023/04/18 09:33:08;;;;;;;7.55;4.60;;;12.50;76.80;;;;;;5114357;28;20021;-76
2023/04/18 09:35:35;;;;;;;7.95;4.35;;;12.50;77.40;;;;;;5114405;28;20025;-76
2023/04/18 09:38:01;;;;;;;7.38;4.80;;;12.40;77.20;;;;;;5114333;28;20031;-76
2023/04/18 09:40:27;;;;;;;9.52;4.80;;;12.40;77.70;;;;;;5114282;28;20020;-76
2023/04/18 09:42:54;;;;;;;8.07;4.35;;;12.40;78.10;;;;;;5114260;28;20034;-76
2023/04/18 09:45:20;;;;;;;7.93;5.00;;;12.30;77.70;;;;;;5114024;28;20021;-77
2023/04/18 09:47:46;;;;;;;8.60;5.45;;;12.30;77.20;;;;;;5114146;28;20024;-77
2023/04/18 09:50:11;;;;;;;7.28;5.00;;;12.30;78.00;;;;;;5114106;28;20016;-77
2023/04/18 09:52:39;;;;;;;9.65;4.97;;;12.30;77.50;;;;;;5095902;28;20554;-77
2023/04/18 09:55:07;;;;;;;9.73;5.40;;;12.20;77.60;;;;;;5114055;28;20039;-76
2023/04/18 09:57:36;;;;;;;11.02;5.60;;;12.20;78.20;;;;;;5114010;28;20045;-76
2023/04/18 10:00:20;;;;;;;8.57;4.82;;;12.20;78.70;;;;;;5113948;28;20057;-76
2023/04/18 10:03:06;;;;;;;7.88;4.60;;;12.20;78.50;;;;;;5113945;28;20028;-76
2023/04/18 10:05:35;;;;;;;9.82;5.30;;;12.20;78.90;;;;;;5112896;28;20087;-76
2023/04/18 10:08:01;;;;;;;8.18;5.20;;;12.20;79.30;;;;;;5113712;28;20076;-75
2023/04/18 10:10:27;;;;;;;10.07;5.07;;;12.30;79.70;;;;;;5113827;28;20031;-75
2023/04/18 10:12:55;;;;;;;9.52;4.90;;;12.40;78.60;;;;;;5113808;28;20024;-76
2023/04/18 10:15:23;;;;;;;7.90;4.75;;;12.40;78.30;;;;;;5113729;28;20035;-76
2023/04/18 10:17:53;;;;;;;7.47;4.53;;;12.50;77.90;;;;;;5113697;28;20052;-76
2023/04/18 10:20:24;;;;;;;8.63;5.47;;;12.60;78.40;;;;;;5113408;28;20035;-76
2023/04/18 10:22:51;;;;;;;7.30;4.65;;;12.60;78.80;;;;;;5113682;28;20020;-76
2023/04/18 10:25:37;;;;;;;8.50;5.07;;;12.80;78.80;;;;;;5112614;28;20024;-76
2023/04/18 10:28:06;;;;;;;7.90;4.60;;;12.90;78.20;;;;;;5099382;28;20061;-76
2023/04/18 10:30:41;;;;;;;8.57;4.88;;;12.90;76.40;;;;;;5113634;28;20016;-76
2023/04/18 10:33:24;;;;;;;8.55;5.18;;;12.90;77.40;;;;;;5113402;28;20103;-76
2023/04/18 10:36:15;;;;;;;8.55;4.47;;;12.90;76.20;;;;;;5113492;28;20092;-76
2023/04/18 10:38:52;;;;;;;8.20;4.65;;;12.80;75.90;;;;;;5113594;28;20028;-76
2023/04/18 10:41:31;;;;;;;9.73;5.32;;;12.70;75.90;;;;;;5113390;28;20024;-76
2023/04/18 10:44:09;;;;;;;7.38;4.57;;;12.60;76.10;;;;;;5113376;28;20024;-76
2023/04/18 10:46:49;;;;;;;11.57;4.60;;;12.60;75.70;;;;;;5113480;28;20018;-76
2023/04/18 10:49:23;;;;;;;9.75;4.55;;;12.50;76.50;;;;;;5113369;28;20050;-76
2023/04/18 10:51:57;;;;;;;8.40;4.47;;;12.40;77.30;;;;;;5112156;28;20051;-76
2023/04/18 10:55:00;;;;;;;6.45;4.35;;;12.40;77.20;;;;;;5113375;28;20020;-76
2023/04/18 10:57:36;;;;;;;;;;;12.40;77.20;;;;;;5113900;28;20024;-76
2023/04/18 11:00:03;;;;;;;8.70;5.32;;;12.40;77.10;;;;;;5113325;28;19904;-76
2023/04/18 11:02:31;;;;;;;11.35;5.28;;;12.30;78.00;;;;;;5113202;28;20024;-76
2023/04/18 11:05:05;;;;;;;9.07;5.20;;;12.30;77.90;;;;;;5113121;28;20050;-76
2023/04/18 11:07:40;;;;;;;8.52;5.50;;;12.30;78.40;;;;;;5112367;28;20024;-75
2023/04/18 11:10:08;;;;;;;8.43;4.75;;;12.30;78.20;;;;;;5113169;28;20024;-75
2023/04/18 11:12:36;;;;;;;9.82;5.28;;;12.20;79.60;;;;;;5113139;28;20036;-75
2023/04/18 11:15:08;;;;;;;9.50;5.85;;;12.20;78.90;;;;;;5113066;28;20088;-76
2023/04/18 11:17:34;;;;;;;8.38;5.38;;;12.20;78.60;;;;;;5113158;28;20063;-76
2023/04/18 11:20:10;;;;;;;10.55;5.80;;;12.20;78.90;;;;;;5112937;28;20016;-76
2023/04/18 11:22:49;;;;;;;9.77;5.32;;;12.20;78.90;;;;;;5113102;28;20081;-76
2023/04/18 11:25:16;;;;;;;9.70;5.28;;;12.30;79.60;;;;;;5112853;28;20113;-76
2023/04/18 11:27:46;;;;;;;9.30;5.32;;;12.30;79.70;;;;;;5112862;28;20026;-76
2023/04/18 11:30:14;;;;;;;9.38;5.95;;;12.40;80.30;;;;;;5112872;28;20028;-76
2023/04/18 11:32:40;;;;;;;10.52;6.22;;;12.50;80.20;;;;;;5114076;28;20024;-76
2023/04/18 11:35:10;;;;;;;10.07;6.53;;;12.50;80.20;;;;;;5115535;28;20028;-76
2023/04/18 11:37:37;;;;;;;9.88;5.45;;;12.50;79.40;;;;;;5116671;28;20051;-76
2023/04/18 11:40:06;;;;;;;11.55;6.15;;;12.50;79.40;;;;;;5116611;28;20385;-76
2023/04/18 11:42:33;;;;;;;10.45;5.90;;;12.50;79.80;;;;;;5116569;28;20047;-76
2023/04/18 11:44:58;;;;;;;11.25;6.10;;;12.50;79.20;;;;;;5116457;28;20028;-76
2023/04/18 11:47:29;;;;;;;8.95;5.25;;;12.50;79.50;;;;;;5116434;28;20050;-76
2023/04/18 11:50:03;;;;;;;10.23;5.53;;;12.50;79.70;;;;;;5115711;28;20020;-76
2023/04/18 11:52:30;;;;;;;12.60;6.53;;;12.50;80.10;;;;;;5116127;28;20040;-76
2023/04/18 11:55:09;;;;;;;13.80;6.15;;;12.50;80.10;;;;;;5116347;28;20040;-76
2023/04/18 11:57:35;;;;;;;9.73;5.93;;;12.60;80.20;;;;;;5115384;28;20064;-76
2023/04/18 12:00:00;;;;;;;11.13;6.30;;;12.70;81.20;;;;;;5116273;28;20024;-76
2023/04/18 12:02:38;;;;;;;9.15;5.95;;;12.80;80.90;;;;;;5115378;28;20031;-76
2023/04/18 12:05:04;;;;;;;12.70;6.45;;;12.90;79.80;;;;;;5116085;28;20032;-77
2023/04/18 12:07:41;;;;;;;10.55;6.45;;;12.90;79.50;;;;;;5115180;28;20048;-76
2023/04/18 12:10:28;;;;;;;9.73;6.25;;;12.90;79.60;;;;;;5115059;28;20022;-76
2023/04/18 12:12:57;;;;;;;10.45;6.50;;;12.90;79.30;;;;;;5115290;28;20043;-76
2023/04/18 12:15:26;;;;;;;11.48;6.88;;;12.90;79.80;;;;;;5115942;28;20031;-76
2023/04/18 12:17:57;;;;;;;16.67;6.85;;;13.00;80.50;;;;;;5115904;28;20024;-76
2023/04/18 12:20:26;;;;;;;15.63;6.93;;;13.00;80.50;;;;;;5115913;28;20024;-76
2023/04/18 12:22:53;;;;;;;13.00;7.43;;;13.10;80.20;;;;;;5115761;28;20050;-76
2023/04/18 12:25:25;;;;;;;11.70;6.85;;;13.20;79.30;;;;;;5115681;28;20054;-76
2023/04/18 12:28:03;;;;;;;14.68;7.40;;;13.10;79.00;;;;;;5115851;28;20051;-76
2023/04/18 12:30:30;;;;;;;12.98;7.72;;;13.10;78.50;;;;;;5115731;28;20028;-76
2023/04/18 12:33:01;;;;;;;13.95;7.97;;;13.10;78.20;;;;;;5115623;28;20357;-76
2023/04/18 12:35:27;;;;;;;13.00;7.90;;;13.10;78.90;;;;;;5114505;28;20032;-76
2023/04/18 12:37:54;;;;;;;12.90;7.90;;;13.10;79.20;;;;;;5115567;28;20031;-76
2023/04/18 12:40:21;;;;;;;14.27;8.02;;;13.10;80.20;;;;;;5115459;28;20137;-76
2023/04/18 12:42:48;;;;;;;13.82;7.75;;;13.10;80.10;;;;;;5115255;28;20032;-76
2023/04/18 12:45:15;;;;;;;12.20;7.30;;;13.20;80.10;;;;;;5114098;28;20052;-76